Time;durP1;ratioP1;P1;durP2;ratioP2;P2;SDS_P1;SDS_P2;PMS_P1;PMS_P2;Temp;Humidity;BMP_temperature;BMP_pressure;BME280_temperature;BME280_humidity;BME280_pressure;Samples;Min_cycle;Max_cycle;Signal;HPM_P1;HPM_P2
2023/01/29 00:02:18;;;;;;;38.00;24.90;;;2.70;99.90;;;;;;5051573;28;20177;-64
2023/01/29 00:04:44;;;;;;;43.30;27.27;;;2.70;99.90;;;;;;5052212;28;20215;-64
2023/01/29 00:07:10;;;;;;;43.27;25.80;;;2.70;99.90;;;;;;5051444;28;20185;-64
2023/01/29 00:09:36;;;;;;;37.27;23.20;;;2.60;99.90;;;;;;5048593;28;20462;-65
2023/01/29 00:12:02;;;;;;;35.80;22.20;;;2.70;99.90;;;;;;5014599;28;20269;-64
2023/01/29 00:14:28;;;;;;;35.08;22.00;;;2.80;99.90;;;;;;5031424;28;20193;-64
2023/01/29 00:16:56;;;;;;;31.97;21.27;;;2.80;99.90;;;;;;5032501;28;20181;-64
2023/01/29 00:19:22;;;;;;;34.63;21.52;;;2.90;99.90;;;;;;5036743;28;20180;-64
2023/01/29 00:21:47;;;;;;;33.93;20.57;;;2.90;99.90;;;;;;5049616;28;20196;-63
2023/01/29 00:24:13;;;;;;;31.63;19.07;;;2.90;99.90;;;;;;5054003;28;20208;-64
2023/01/29 00:26:39;;;;;;;34.43;20.30;;;2.90;99.90;;;;;;5054690;28;20274;-64
2023/01/29 00:29:05;;;;;;;33.90;20.57;;;3.00;99.90;;;;;;5056050;28;20177;-66
2023/01/29 00:31:31;;;;;;;35.90;20.80;;;3.00;99.90;;;;;;5053241;28;20247;-64
2023/01/29 00:33:57;;;;;;;34.57;21.03;;;2.90;99.90;;;;;;5054782;28;20196;-64
2023/01/29 00:36:24;;;;;;;35.97;20.85;;;2.80;99.90;;;;;;5038642;28;20239;-64
2023/01/29 00:38:58;;;;;;;32.90;21.67;;;2.80;99.90;;;;;;5031713;28;20184;-64
2023/01/29 00:46:59;;;;;;;32.65;20.80;;;2.70;99.90;;;;;;5074933;28;20658;-64
2023/01/29 00:49:25;;;;;;;34.30;21.20;;;2.70;99.90;;;;;;5062841;28;20717;-63
2023/01/29 00:54:37;;;;;;;36.42;21.73;;;2.60;99.90;;;;;;5054127;28;20201;-63
2023/01/29 00:57:03;;;;;;;34.42;21.08;;;2.60;99.90;;;;;;5054014;28;20176;-63
2023/01/29 00:59:29;;;;;;;32.60;20.33;;;2.60;99.90;;;;;;5070788;28;20190;-63
2023/01/29 01:04:39;;;;;;;32.72;20.95;;;2.60;99.90;;;;;;5057294;28;20192;-66
2023/01/29 01:07:05;;;;;;;32.00;21.23;;;2.60;99.90;;;;;;5065890;28;20192;-63
2023/01/29 01:12:17;;;;;;;32.13;20.85;;;2.50;99.90;;;;;;5065734;28;20195;-63
2023/01/29 01:14:43;;;;;;;41.27;21.43;;;2.50;99.90;;;;;;5074531;28;20632;-63
2023/01/29 01:17:09;;;;;;;33.60;20.80;;;2.60;99.90;;;;;;5060322;28;20754;-69
2023/01/29 01:19:35;;;;;;;36.33;20.43;;;2.50;99.90;;;;;;5058953;28;20658;-63
2023/01/29 01:22:01;;;;;;;32.50;20.23;;;2.50;99.90;;;;;;5063489;28;20270;-63
2023/01/29 01:24:26;;;;;;;35.05;21.60;;;2.50;99.90;;;;;;5057525;28;20470;-63
2023/01/29 01:26:52;;;;;;;29.13;19.33;;;2.50;99.90;;;;;;5070001;28;20192;-64
2023/01/29 01:29:18;;;;;;;30.63;20.03;;;2.40;99.90;;;;;;5056681;28;20526;-64
2023/01/29 01:31:44;;;;;;;34.77;19.60;;;2.40;99.90;;;;;;5074063;28;20526;-63
2023/01/29 01:34:10;;;;;;;32.53;19.85;;;2.40;99.90;;;;;;5066727;28;20193;-64
2023/01/29 01:36:36;;;;;;;34.03;21.13;;;2.40;99.90;;;;;;5061211;28;20190;-63
2023/01/29 01:39:01;;;;;;;33.53;20.40;;;2.40;99.90;;;;;;5073165;28;20763;-66
2023/01/29 01:41:29;;;;;;;35.87;21.57;;;2.50;99.90;;;;;;5038273;28;20233;-64
2023/01/29 01:44:01;;;;;;;32.88;20.92;;;2.50;99.90;;;;;;5024816;28;20954;-63
2023/01/29 01:46:34;;;;;;;33.80;21.02;;;2.60;99.90;;;;;;5033529;28;20192;-66
2023/01/29 01:49:11;;;;;;;39.58;21.20;;;2.60;99.90;;;;;;5051602;28;20188;-64
2023/01/29 01:51:41;;;;;;;35.35;21.00;;;2.60;99.90;;;;;;5000122;28;20271;-64
2023/01/29 01:54:11;;;;;;;36.03;21.15;;;2.60;99.90;;;;;;5047776;28;20193;-64
2023/01/29 01:56:48;;;;;;;34.25;20.00;;;2.60;99.90;;;;;;5052290;28;20185;-64
2023/01/29 01:59:17;;;;;;;29.63;20.80;;;2.60;99.90;;;;;;5052058;28;20194;-69
2023/01/29 02:01:50;;;;;;;31.92;20.45;;;2.60;99.90;;;;;;5054085;28;20660;-64
2023/01/29 02:10:06;;;;;;;34.22;22.05;;;2.50;99.70;;;;;;5054112;28;20179;-63
2023/01/29 02:12:32;;;;;;;35.13;21.40;;;2.50;99.70;;;;;;5051780;28;20184;-64
2023/01/29 02:14:58;;;;;;;30.55;21.15;;;2.40;99.90;;;;;;5040455;28;20184;-64
2023/01/29 02:17:24;;;;;;;35.03;21.73;;;2.40;99.90;;;;;;5035835;28;20598;-64
2023/01/29 02:20:28;;;;;;;35.37;20.10;;;2.40;99.90;;;;;;5053823;28;20182;-63
2023/01/29 02:23:17;;;;;;;37.67;20.92;;;2.40;99.90;;;;;;5053763;28;20537;-64
2023/01/29 02:25:49;;;;;;;32.20;20.20;;;2.40;99.90;;;;;;4990477;28;20204;-63
2023/01/29 02:28:20;;;;;;;36.13;21.30;;;2.30;99.90;;;;;;5035600;28;20204;-69
2023/01/29 02:31:24;;;;;;;36.90;22.83;;;2.30;99.90;;;;;;5053758;28;20169;-63
2023/01/29 02:33:58;;;;;;;33.55;19.17;;;2.20;99.90;;;;;;4986688;28;20213;-64
2023/01/29 02:36:31;;;;;;;34.03;21.20;;;2.20;99.90;;;;;;5042146;28;20191;-64
2023/01/29 02:39:06;;;;;;;35.78;21.73;;;2.20;99.90;;;;;;5012092;28;20222;-63
2023/01/29 02:41:43;;;;;;;36.20;20.10;;;2.10;99.90;;;;;;5041315;28;20689;-63
2023/01/29 02:44:45;;;;;;;36.88;22.13;;;2.20;99.90;;;;;;5059208;28;20231;-63
2023/01/29 02:47:29;;;;;;;33.78;20.60;;;2.10;99.90;;;;;;5060991;28;20191;-64
2023/01/29 02:50:03;;;;;;;31.05;20.17;;;2.10;99.90;;;;;;5053392;28;20486;-63
2023/01/29 02:52:32;;;;;;;35.13;21.00;;;2.20;99.90;;;;;;5054280;28;20635;-63
2023/01/29 02:55:09;;;;;;;31.95;20.95;;;2.20;99.90;;;;;;5073230;28;20565;-64
2023/01/29 02:57:41;;;;;;;34.13;21.48;;;2.20;99.90;;;;;;5072820;28;20162;-63
2023/01/29 03:00:13;;;;;;;29.23;20.00;;;2.30;99.90;;;;;;5070650;28;20191;-63
2023/01/29 03:02:57;;;;;;;31.45;19.92;;;2.30;99.90;;;;;;5072015;28;20181;-65
2023/01/29 03:05:29;;;;;;;37.42;21.77;;;2.30;99.90;;;;;;5056813;28;20206;-64
2023/01/29 03:08:01;;;;;;;35.63;21.42;;;2.40;99.90;;;;;;5072007;28;20176;-63
2023/01/29 03:10:38;;;;;;;32.60;21.00;;;2.40;99.90;;;;;;5072323;28;20192;-64
2023/01/29 03:13:34;;;;;;;36.05;22.33;;;2.50;99.90;;;;;;5073002;28;20176;-63
2023/01/29 03:16:26;;;;;;;35.67;21.45;;;2.50;99.90;;;;;;5072156;28;20350;-63
2023/01/29 03:19:02;;;;;;;37.08;22.17;;;2.50;99.90;;;;;;5055401;28;21034;-64
2023/01/29 03:21:50;;;;;;;36.58;22.40;;;2.60;99.90;;;;;;5052127;28;20203;-64
2023/01/29 03:32:50;;;;;;;37.10;22.52;;;2.40;99.90;;;;;;5072538;28;20247;-63
2023/01/29 03:35:35;;;;;;;35.67;21.02;;;2.40;99.90;;;;;;5071827;28;20204;-69
2023/01/29 03:38:08;;;;;;;31.75;19.95;;;2.30;99.90;;;;;;5054714;28;20267;-63
2023/01/29 03:40:49;;;;;;;37.92;21.73;;;2.30;99.90;;;;;;5070069;28;20314;-63
2023/01/29 03:43:22;;;;;;;39.85;21.80;;;2.30;99.90;;;;;;5072618;28;20221;-63
2023/01/29 03:46:02;;;;;;;36.58;21.65;;;2.30;99.90;;;;;;5072594;28;20221;-63
2023/01/29 03:49:01;;;;;;;37.00;21.92;;;2.20;99.90;;;;;;5072005;28;20163;-64
2023/01/29 03:51:37;;;;;;;34.05;20.58;;;2.20;99.90;;;;;;5069496;28;20214;-64
2023/01/29 03:54:25;;;;;;;37.60;22.65;;;2.20;99.90;;;;;;5052570;28;20169;-63
2023/01/29 03:57:21;;;;;;;36.85;21.10;;;2.20;99.90;;;;;;5052221;28;20307;-64
2023/01/29 04:00:03;;;;;;;35.00;21.08;;;2.20;99.90;;;;;;5062090;28;20178;-63
2023/01/29 04:02:43;;;;;;;32.88;20.52;;;2.20;99.90;;;;;;5072381;28;20183;-63
2023/01/29 04:05:15;;;;;;;37.50;21.08;;;2.20;99.90;;;;;;5071173;28;20207;-63
2023/01/29 04:07:43;;;;;;;32.95;19.02;;;2.20;99.90;;;;;;5072040;28;20589;-63
2023/01/29 04:10:13;;;;;;;32.90;21.10;;;2.20;99.90;;;;;;5072653;28;20517;-63
2023/01/29 04:12:48;;;;;;;34.00;21.58;;;2.20;99.90;;;;;;5071087;28;20626;-63
2023/01/29 04:15:15;;;;;;;35.85;21.65;;;2.30;99.90;;;;;;5072334;28;20171;-63
2023/01/29 04:17:50;;;;;;;38.47;22.15;;;2.20;99.90;;;;;;5070660;28;20183;-64
2023/01/29 04:20:16;;;;;;;35.75;20.67;;;2.10;99.90;;;;;;5072669;28;20158;-64
2023/01/29 04:22:45;;;;;;;37.40;22.03;;;2.10;99.90;;;;;;5072074;28;20287;-63
2023/01/29 04:25:15;;;;;;;34.72;22.10;;;2.10;99.90;;;;;;5072417;28;20504;-63
2023/01/29 04:27:56;;;;;;;37.65;22.20;;;2.10;99.90;;;;;;5070534;28;20223;-64
2023/01/29 04:30:24;;;;;;;35.75;21.90;;;2.10;99.90;;;;;;5070379;28;20621;-64
2023/01/29 04:33:02;;;;;;;34.00;20.52;;;2.10;99.90;;;;;;5071189;28;20666;-63
2023/01/29 04:35:28;;;;;;;37.63;22.00;;;2.20;99.90;;;;;;5069241;28;20210;-64
2023/01/29 04:38:10;;;;;;;37.30;20.53;;;2.10;99.90;;;;;;5072004;28;20348;-63
2023/01/29 04:40:50;;;;;;;37.80;22.15;;;2.10;99.90;;;;;;5070274;28;20219;-63
2023/01/29 04:43:54;;;;;;;35.90;22.65;;;2.10;99.90;;;;;;5070624;28;20209;-63
2023/01/29 04:46:26;;;;;;;32.28;21.27;;;2.10;99.90;;;;;;5072025;28;20156;-69
2023/01/29 04:49:00;;;;;;;36.55;21.00;;;2.10;99.90;;;;;;5071985;28;20166;-65
2023/01/29 04:51:59;;;;;;;37.83;21.85;;;2.10;99.90;;;;;;5071355;28;20503;-67
2023/01/29 04:54:48;;;;;;;36.65;21.27;;;2.10;99.90;;;;;;5051625;28;20188;-63
2023/01/29 04:57:27;;;;;;;35.28;23.42;;;2.10;99.90;;;;;;5051945;28;20577;-62
2023/01/29 05:00:08;;;;;;;36.30;22.08;;;2.10;99.90;;;;;;5052244;28;20171;-62
2023/01/29 05:02:38;;;;;;;36.78;21.27;;;2.00;99.90;;;;;;5051523;28;20164;-63
2023/01/29 05:05:05;;;;;;;32.70;21.67;;;2.00;99.90;;;;;;5054300;28;20684;-62
2023/01/29 05:07:34;;;;;;;39.50;22.88;;;2.00;99.90;;;;;;5058578;28;20220;-62
2023/01/29 05:10:00;;;;;;;35.92;21.08;;;2.00;99.90;;;;;;5067023;28;20179;-62
2023/01/29 05:12:29;;;;;;;40.13;23.17;;;2.10;99.90;;;;;;5074181;28;20199;-63
2023/01/29 05:15:00;;;;;;;35.25;21.05;;;2.10;99.90;;;;;;5075742;28;20235;-62
2023/01/29 05:17:26;;;;;;;37.60;22.25;;;2.10;99.90;;;;;;5084641;28;20170;-63
2023/01/29 05:19:54;;;;;;;39.03;22.10;;;2.10;99.90;;;;;;5095877;28;20318;-62
2023/01/29 05:22:22;;;;;;;37.28;21.50;;;2.10;99.90;;;;;;5096102;28;20212;-64
2023/01/29 05:24:50;;;;;;;40.55;23.13;;;2.20;99.90;;;;;;5095739;28;20295;-63
2023/01/29 05:30:13;;;;;;;41.92;23.45;;;2.30;99.90;;;;;;5057812;28;20187;-64
2023/01/29 05:32:39;;;;;;;40.20;24.93;;;2.40;99.90;;;;;;5054768;28;20174;-62
2023/01/29 05:35:05;;;;;;;43.47;25.17;;;2.40;99.90;;;;;;5064057;28;20240;-63
2023/01/29 05:37:31;;;;;;;37.40;22.30;;;2.50;99.90;;;;;;5073378;28;20608;-63
2023/01/29 05:39:56;;;;;;;34.70;23.17;;;2.50;99.90;;;;;;5066419;28;20272;-63
2023/01/29 05:42:23;;;;;;;37.90;22.87;;;2.60;99.90;;;;;;5035353;28;20196;-62
2023/01/29 05:44:49;;;;;;;39.33;24.17;;;2.60;99.90;;;;;;5034880;28;20208;-62
2023/01/29 05:47:19;;;;;;;40.83;25.40;;;2.70;99.90;;;;;;5035151;28;20184;-62
2023/01/29 05:49:44;;;;;;;44.22;25.58;;;2.70;99.90;;;;;;5034456;28;20408;-63
2023/01/29 05:52:10;;;;;;;39.03;24.03;;;2.70;99.90;;;;;;5035049;28;20181;-64
2023/01/29 05:54:36;;;;;;;42.10;24.17;;;2.80;99.90;;;;;;5027374;28;20189;-63
2023/01/29 05:57:01;;;;;;;42.40;24.53;;;2.80;99.90;;;;;;5054905;28;20181;-63
2023/01/29 05:59:30;;;;;;;44.17;24.20;;;2.80;99.90;;;;;;5054272;28;20268;-63
2023/01/29 06:01:56;;;;;;;39.92;24.33;;;2.90;99.90;;;;;;5054990;28;20230;-63
2023/01/29 06:04:22;;;;;;;37.50;24.20;;;2.90;99.90;;;;;;5053241;28;20203;-64
2023/01/29 06:06:47;;;;;;;49.80;25.20;;;3.00;99.90;;;;;;5036252;28;20632;-63
2023/01/29 06:09:13;;;;;;;41.83;24.23;;;3.00;99.90;;;;;;5054371;28;20181;-64
2023/01/29 06:11:39;;;;;;;41.50;24.87;;;3.10;99.90;;;;;;5036233;28;20173;-64
2023/01/29 06:14:05;;;;;;;40.07;23.53;;;3.10;99.90;;;;;;5054917;28;20570;-63
2023/01/29 06:16:31;;;;;;;47.90;25.50;;;3.10;99.90;;;;;;5053984;28;20919;-64
2023/01/29 06:18:56;;;;;;;42.80;24.63;;;3.20;99.90;;;;;;5053106;28;20478;-63
2023/01/29 06:21:22;;;;;;;41.70;24.10;;;3.20;99.90;;;;;;5053551;28;20251;-63
2023/01/29 06:23:48;;;;;;;42.83;24.13;;;3.30;99.90;;;;;;5052514;28;20219;-64
2023/01/29 06:26:14;;;;;;;40.33;24.37;;;3.30;99.90;;;;;;5047510;28;20182;-63
2023/01/29 06:28:41;;;;;;;38.90;23.52;;;3.60;99.90;;;;;;5037427;28;20196;-63
2023/01/29 06:31:07;;;;;;;39.35;24.77;;;3.40;99.90;;;;;;5054292;28;20271;-64
2023/01/29 06:33:33;;;;;;;39.70;22.60;;;3.50;99.90;;;;;;5035764;28;20181;-64
2023/01/29 06:36:02;;;;;;;40.60;23.10;;;3.40;99.90;;;;;;5053877;28;20228;-63
2023/01/29 06:38:28;;;;;;;46.30;26.23;;;3.40;99.90;;;;;;5051796;28;20409;-64
2023/01/29 06:40:54;;;;;;;39.83;22.87;;;3.40;99.90;;;;;;5053529;28;20275;-64
2023/01/29 06:43:20;;;;;;;39.00;23.48;;;3.40;99.90;;;;;;5053966;28;20512;-63
2023/01/29 06:45:56;;;;;;;36.70;22.73;;;3.40;99.90;;;;;;5035336;28;20193;-64
2023/01/29 06:48:23;;;;;;;42.13;24.30;;;3.50;99.90;;;;;;5053946;28;20261;-64
2023/01/29 06:50:49;;;;;;;44.17;24.58;;;3.50;99.90;;;;;;5051438;28;20590;-64
2023/01/29 06:53:16;;;;;;;42.53;24.63;;;3.50;99.90;;;;;;5039947;28;20274;-68
2023/01/29 06:55:43;;;;;;;39.63;24.13;;;3.50;99.90;;;;;;5042146;28;20407;-64
2023/01/29 06:58:11;;;;;;;44.47;24.35;;;3.60;99.90;;;;;;5041595;28;20192;-64
2023/01/29 07:00:37;;;;;;;42.30;23.95;;;3.60;99.90;;;;;;5017726;28;20196;-67
2023/01/29 07:03:03;;;;;;;46.05;24.98;;;3.60;99.90;;;;;;5044435;28;20600;-63
2023/01/29 07:05:30;;;;;;;42.42;23.60;;;3.60;99.90;;;;;;5042485;28;20216;-65
2023/01/29 07:07:56;;;;;;;45.67;26.00;;;3.70;99.90;;;;;;5049866;28;20193;-64
2023/01/29 07:10:22;;;;;;;42.92;23.45;;;3.60;99.90;;;;;;5035729;28;20171;-64
2023/01/29 07:12:48;;;;;;;41.47;23.77;;;3.60;99.90;;;;;;5038216;28;20561;-64
2023/01/29 07:15:18;;;;;;;37.37;23.63;;;3.60;99.90;;;;;;5041902;28;20201;-64
2023/01/29 07:17:44;;;;;;;41.35;24.02;;;3.70;99.90;;;;;;5049947;28;20183;-64
2023/01/29 07:20:10;;;;;;;41.23;23.50;;;3.60;99.90;;;;;;5048263;28;20193;-64
2023/01/29 07:22:36;;;;;;;45.53;23.55;;;3.60;99.90;;;;;;5043582;28;20502;-64
2023/01/29 07:25:01;;;;;;;43.20;24.47;;;3.70;99.90;;;;;;5033050;28;20206;-65
2023/01/29 07:27:27;;;;;;;38.60;24.13;;;3.70;99.90;;;;;;5034035;28;20575;-65
2023/01/29 07:29:53;;;;;;;38.47;22.87;;;3.80;99.90;;;;;;5014534;28;20174;-70
2023/01/29 07:32:18;;;;;;;44.80;23.40;;;3.80;99.90;;;;;;5050503;28;20200;-65
2023/01/29 07:34:44;;;;;;;40.67;23.30;;;3.80;99.90;;;;;;5052731;28;20173;-64
2023/01/29 07:37:10;;;;;;;38.50;22.47;;;3.80;99.90;;;;;;5053091;28;20187;-64
2023/01/29 07:39:36;;;;;;;43.70;24.70;;;3.80;99.90;;;;;;5045606;28;20254;-65
2023/01/29 07:42:02;;;;;;;39.50;23.23;;;3.80;99.90;;;;;;5048025;28;20221;-65
2023/01/29 07:44:27;;;;;;;40.40;22.93;;;3.80;99.90;;;;;;5028485;28;20213;-66
2023/01/29 07:46:53;;;;;;;45.53;23.10;;;3.90;99.90;;;;;;5033334;28;20419;-65
2023/01/29 07:49:19;;;;;;;37.70;22.50;;;3.90;99.90;;;;;;5035030;28;20590;-65
2023/01/29 07:51:44;;;;;;;44.43;24.67;;;3.90;99.90;;;;;;5040166;28;20613;-65
2023/01/29 07:54:10;;;;;;;43.10;23.70;;;4.00;99.90;;;;;;5041950;28;20253;-62
2023/01/29 07:56:36;;;;;;;39.60;22.33;;;3.90;99.90;;;;;;5042310;28;20213;-63
2023/01/29 07:59:02;;;;;;;42.67;24.70;;;3.90;99.90;;;;;;5051692;28;20197;-62
2023/01/29 08:01:27;;;;;;;41.20;24.95;;;4.00;99.90;;;;;;5047177;28;20268;-63
2023/01/29 08:03:53;;;;;;;40.67;24.77;;;4.00;99.90;;;;;;5031474;28;20285;-63
2023/01/29 08:06:19;;;;;;;44.20;24.70;;;4.00;99.90;;;;;;5043941;28;20195;-63
2023/01/29 08:08:44;;;;;;;40.40;23.17;;;4.00;99.90;;;;;;5051225;28;20166;-62
2023/01/29 08:11:10;;;;;;;45.23;23.40;;;4.00;99.90;;;;;;5051677;28;20410;-64
2023/01/29 08:13:36;;;;;;;41.40;24.83;;;4.00;99.90;;;;;;5019691;28;20185;-64
2023/01/29 08:16:03;;;;;;;39.70;23.93;;;4.10;99.90;;;;;;5021440;28;20276;-63
2023/01/29 08:18:30;;;;;;;42.53;23.70;;;4.10;99.90;;;;;;5045827;28;20193;-63
2023/01/29 08:21:00;;;;;;;38.55;24.13;;;4.10;99.90;;;;;;5048648;28;20273;-63
2023/01/29 08:23:25;;;;;;;41.55;25.77;;;4.10;99.90;;;;;;5048474;28;20190;-63
2023/01/29 08:25:51;;;;;;;41.90;24.97;;;4.10;99.90;;;;;;5050949;28;20188;-62
2023/01/29 08:28:17;;;;;;;38.57;22.10;;;4.10;99.90;;;;;;5050016;28;20800;-64
2023/01/29 08:30:43;;;;;;;40.30;22.53;;;4.10;99.90;;;;;;5039551;28;20174;-63
2023/01/29 08:33:09;;;;;;;42.28;23.48;;;4.20;99.90;;;;;;5038866;28;20221;-65
2023/01/29 08:35:35;;;;;;;37.88;22.38;;;4.20;99.90;;;;;;5031737;28;20573;-70
2023/01/29 08:38:03;;;;;;;38.28;21.65;;;4.20;99.90;;;;;;5031436;28;20183;-65
2023/01/29 08:40:31;;;;;;;36.30;21.65;;;4.20;99.90;;;;;;5042598;28;20233;-65
2023/01/29 08:43:03;;;;;;;37.47;22.48;;;4.30;99.90;;;;;;5050984;28;20196;-65
2023/01/29 08:45:29;;;;;;;36.78;22.05;;;4.20;99.90;;;;;;5055071;28;20242;-65
2023/01/29 08:47:54;;;;;;;37.03;21.98;;;4.30;99.90;;;;;;5054737;28;20166;-65
2023/01/29 08:50:20;;;;;;;39.83;23.07;;;4.30;99.90;;;;;;5055617;28;20192;-65
2023/01/29 08:52:46;;;;;;;44.40;23.40;;;4.30;99.90;;;;;;5025681;28;20174;-64
2023/01/29 08:55:11;;;;;;;35.17;21.60;;;4.40;99.90;;;;;;5029816;28;20606;-65
2023/01/29 08:57:38;;;;;;;37.40;22.30;;;4.30;99.90;;;;;;5054193;28;20190;-70
2023/01/29 09:00:05;;;;;;;37.10;22.70;;;4.30;99.90;;;;;;5055544;28;20412;-65
2023/01/29 09:02:31;;;;;;;36.00;22.58;;;4.30;99.90;;;;;;5036750;28;20271;-66
2023/01/29 09:04:57;;;;;;;42.08;24.55;;;4.40;99.90;;;;;;5049138;28;20316;-67
2023/01/29 09:07:23;;;;;;;39.90;21.83;;;4.40;99.90;;;;;;5052009;28;20277;-65
2023/01/29 09:09:49;;;;;;;39.30;23.80;;;4.40;99.90;;;;;;5041096;28;20406;-65
2023/01/29 09:12:14;;;;;;;33.60;21.37;;;4.30;99.90;;;;;;5042645;28;20324;-66
2023/01/29 09:14:40;;;;;;;33.03;20.57;;;4.40;99.90;;;;;;5034740;28;20182;-65
2023/01/29 09:17:06;;;;;;;39.20;23.20;;;4.40;99.90;;;;;;5022099;28;20515;-65
2023/01/29 09:19:31;;;;;;;40.37;23.27;;;4.50;99.90;;;;;;5037412;28;20220;-66
2023/01/29 09:21:57;;;;;;;37.60;22.80;;;4.40;99.90;;;;;;5035531;28;20247;-65
2023/01/29 09:24:23;;;;;;;37.33;21.27;;;4.40;99.90;;;;;;5040221;28;20211;-65
2023/01/29 09:26:49;;;;;;;41.90;23.83;;;4.50;99.90;;;;;;5035406;28;20685;-65
2023/01/29 09:29:14;;;;;;;40.03;23.33;;;4.60;99.90;;;;;;5037454;28;20263;-65
2023/01/29 09:31:40;;;;;;;36.33;22.07;;;4.60;99.90;;;;;;5021393;28;20516;-66
2023/01/29 09:34:06;;;;;;;35.53;21.80;;;4.60;99.90;;;;;;5039508;28;20192;-65
2023/01/29 09:36:31;;;;;;;38.60;22.43;;;4.60;99.90;;;;;;5021970;28;20631;-66
2023/01/29 09:38:57;;;;;;;41.57;22.93;;;4.60;99.90;;;;;;5034141;28;20389;-65
2023/01/29 09:41:51;;;;;;;39.27;22.93;;;4.70;99.90;;;;;;5042737;28;20217;-66
2023/01/29 09:44:30;;;;;;;34.40;22.42;;;4.80;99.90;;;;;;5051307;28;20201;-67
2023/01/29 09:46:59;;;;;;;35.88;22.60;;;4.80;99.90;;;;;;5050275;28;20196;-67
2023/01/29 09:49:34;;;;;;;42.70;24.30;;;5.00;99.90;;;;;;5050940;28;20193;-68
2023/01/29 09:52:32;;;;;;;41.03;23.45;;;5.00;99.90;;;;;;5057679;28;20205;-67
2023/01/29 09:55:05;;;;;;;42.20;23.13;;;5.10;99.90;;;;;;5028138;28;20358;-66
2023/01/29 09:57:46;;;;;;;39.55;22.20;;;4.80;99.40;;;;;;5050097;28;20232;-67
2023/01/29 10:00:21;;;;;;;39.17;23.20;;;4.90;99.90;;;;;;5058885;28;20188;-67
2023/01/29 10:03:06;;;;;;;37.95;23.25;;;4.90;99.90;;;;;;5052486;28;20189;-67
2023/01/29 10:05:55;;;;;;;39.58;22.98;;;4.90;99.90;;;;;;5051201;28;20193;-65
2023/01/29 10:08:45;;;;;;;36.78;23.27;;;5.00;99.80;;;;;;5066821;28;20272;-69
2023/01/29 10:11:31;;;;;;;40.75;23.98;;;5.00;99.60;;;;;;5062059;28;20466;-65
2023/01/29 10:14:00;;;;;;;41.88;23.80;;;5.10;99.50;;;;;;5056753;28;20796;-66
2023/01/29 10:16:28;;;;;;;42.95;25.15;;;5.10;99.30;;;;;;5051169;28;20186;-67
2023/01/29 10:19:13;;;;;;;37.65;24.55;;;5.10;98.90;;;;;;5063765;28;20189;-66
2023/01/29 10:21:54;;;;;;;40.33;24.05;;;5.00;98.80;;;;;;5067543;28;20204;-67
2023/01/29 10:24:37;;;;;;;37.80;23.48;;;5.00;98.90;;;;;;5050679;28;20196;-66
2023/01/29 10:27:15;;;;;;;35.95;22.27;;;5.00;99.10;;;;;;5050573;28;20181;-65
2023/01/29 10:29:42;;;;;;;35.40;22.10;;;5.00;98.80;;;;;;5062554;28;20177;-65
2023/01/29 10:32:15;;;;;;;39.28;24.73;;;4.90;99.10;;;;;;5057382;28;20184;-65
2023/01/29 10:34:44;;;;;;;40.40;23.15;;;4.90;99.50;;;;;;5067492;28;20201;-66
2023/01/29 10:37:31;;;;;;;36.75;24.98;;;5.00;99.60;;;;;;5033267;28;20186;-73
2023/01/29 10:39:58;;;;;;;40.95;24.80;;;5.00;99.60;;;;;;5062320;28;20192;-73
2023/01/29 10:43:04;;;;;;;38.88;24.65;;;4.90;99.40;;;;;;5025141;28;20190;-73
2023/01/29 10:45:51;;;;;;;38.88;23.98;;;5.00;99.20;;;;;;5010399;28;20258;-74
2023/01/29 10:48:44;;;;;;;36.00;21.90;;;5.00;98.80;;;;;;5037578;28;20208;-73
2023/01/29 10:51:13;;;;;;;34.78;22.52;;;5.10;98.60;;;;;;5034104;28;20170;-74
2023/01/29 10:53:52;;;;;;;34.85;22.70;;;5.10;98.30;;;;;;5033711;28;20174;-73
2023/01/29 10:56:59;;;;;;;36.83;23.92;;;5.00;98.40;;;;;;5035330;28;20182;-73
2023/01/29 10:59:50;;;;;;;35.05;21.30;;;5.00;98.40;;;;;;5039125;28;20170;-73
2023/01/29 11:02:18;;;;;;;34.45;21.30;;;5.10;98.60;;;;;;5034258;28;20230;-73
2023/01/29 11:04:44;;;;;;;33.70;22.00;;;5.20;98.30;;;;;;5039453;28;20272;-73
2023/01/29 11:07:11;;;;;;;34.65;21.75;;;5.30;98.20;;;;;;5049712;28;20680;-73
2023/01/29 11:10:07;;;;;;;38.58;22.52;;;5.10;98.30;;;;;;5032578;28;20182;-74
2023/01/29 11:12:35;;;;;;;37.75;22.83;;;5.20;98.10;;;;;;5040294;28;20186;-73
2023/01/29 11:15:26;;;;;;;38.97;23.88;;;5.30;97.80;;;;;;5026472;28;20550;-74
2023/01/29 11:18:12;;;;;;;34.63;21.13;;;5.40;98.30;;;;;;5034876;28;20183;-72
2023/01/29 11:20:39;;;;;;;34.25;22.98;;;5.50;97.80;;;;;;5014464;28;20186;-75
2023/01/29 11:23:05;;;;;;;33.42;22.55;;;6.00;99.90;;;;;;5015359;28;20189;-78
2023/01/29 11:25:31;;;;;;;32.70;21.90;;;6.80;99.90;;;;;;5036264;28;20281;-74
2023/01/29 11:28:01;;;;;;;31.80;22.53;;;7.60;99.90;;;;;;5023946;28;20277;-73
2023/01/29 11:30:33;;;;;;;33.63;21.80;;;8.30;99.90;;;;;;5038807;28;20852;-73
2023/01/29 11:33:17;;;;;;;34.13;22.23;;;9.00;99.90;;;;;;5040362;28;20425;-74
2023/01/29 11:35:43;;;;;;;30.27;21.90;;;9.50;97.20;;;;;;5024699;28;20413;-74
2023/01/29 11:38:20;;;;;;;33.20;23.70;;;9.80;93.30;;;;;;5029433;28;20447;-74
2023/01/29 11:40:46;;;;;;;32.67;22.17;;;10.00;91.00;;;;;;5044124;28;20476;-74
2023/01/29 11:43:16;;;;;;;30.67;21.70;;;10.30;89.40;;;;;;5033067;28;20432;-75
2023/01/29 11:45:43;;;;;;;31.13;22.90;;;10.60;86.00;;;;;;5014860;28;20508;-75
2023/01/29 11:48:18;;;;;;;29.63;21.93;;;10.90;87.50;;;;;;5036540;28;20934;-75
2023/01/29 11:50:52;;;;;;;32.03;22.70;;;11.10;82.70;;;;;;5032061;28;20905;-73
2023/01/29 11:53:36;;;;;;;30.50;21.53;;;11.30;82.00;;;;;;5032880;28;20412;-75
2023/01/29 11:56:23;;;;;;;28.03;21.27;;;11.30;82.30;;;;;;5048008;28;20561;-74
2023/01/29 11:58:54;;;;;;;28.60;20.40;;;11.60;82.40;;;;;;5020216;28;20466;-75
2023/01/29 12:01:33;;;;;;;26.07;20.30;;;11.70;80.50;;;;;;5042350;28;20430;-76
2023/01/29 12:03:59;;;;;;;28.83;21.27;;;11.50;74.50;;;;;;5027249;28;20452;-75
2023/01/29 12:06:39;;;;;;;28.97;21.97;;;11.20;75.60;;;;;;5050051;28;20424;-75
2023/01/29 12:09:14;;;;;;;29.70;21.20;;;10.30;77.80;;;;;;5028479;28;20429;-74
2023/01/29 12:11:40;;;;;;;32.17;21.10;;;10.10;82.50;;;;;;5030015;28;20421;-76
2023/01/29 12:14:35;;;;;;;30.13;21.40;;;10.00;82.10;;;;;;5031029;28;20576;-75
2023/01/29 12:17:14;;;;;;;30.03;21.53;;;10.40;82.20;;;;;;5046745;28;20476;-75
2023/01/29 12:19:51;;;;;;;28.17;21.07;;;10.50;81.50;;;;;;5026837;28;20445;-77
2023/01/29 12:22:45;;;;;;;27.80;21.00;;;10.80;81.50;;;;;;5034056;28;20436;-75
2023/01/29 12:25:46;;;;;;;28.00;22.13;;;11.10;80.10;;;;;;5052288;28;20446;-75
2023/01/29 12:28:25;;;;;;;397.53;227.67;;;11.10;80.40;;;;;;5019975;28;20422;-74
2023/01/29 12:31:31;;;;;;;35.53;24.57;;;11.20;79.20;;;;;;5029568;28;20509;-75
2023/01/29 12:34:03;;;;;;;29.60;20.00;;;11.30;76.50;;;;;;4999391;28;20448;-74
2023/01/29 12:36:45;;;;;;;31.10;21.40;;;11.20;79.10;;;;;;5017863;28;20429;-74
2023/01/29 12:39:15;;;;;;;27.40;20.97;;;11.20;74.20;;;;;;5033048;28;20422;-74
2023/01/29 12:41:58;;;;;;;29.10;21.13;;;11.00;77.00;;;;;;5050707;28;20473;-75
2023/01/29 12:44:41;;;;;;;29.40;20.33;;;11.10;75.10;;;;;;5050792;28;20461;-74
2023/01/29 12:47:30;;;;;;;28.47;20.00;;;11.20;77.70;;;;;;5041636;28;20453;-74
2023/01/29 12:50:04;;;;;;;30.13;20.37;;;11.30;75.30;;;;;;5014195;28;20405;-74
2023/01/29 12:52:39;;;;;;;26.80;19.90;;;11.30;77.40;;;;;;5014867;28;20419;-74
2023/01/29 12:55:20;;;;;;;27.00;19.90;;;11.60;77.20;;;;;;5037489;28;20442;-75
2023/01/29 12:57:57;;;;;;;26.43;19.13;;;11.80;74.80;;;;;;5018390;28;20424;-75
2023/01/29 13:00:39;;;;;;;26.93;20.13;;;11.80;74.50;;;;;;5052577;28;20400;-75
2023/01/29 13:03:21;;;;;;;31.57;20.97;;;12.10;74.10;;;;;;5029094;28;20430;-74
2023/01/29 13:05:51;;;;;;;26.67;19.73;;;12.30;74.70;;;;;;5032297;28;20451;-75
2023/01/29 13:08:35;;;;;;;25.43;19.90;;;12.50;72.10;;;;;;5033512;28;20431;-70
2023/01/29 13:11:09;;;;;;;26.63;19.53;;;12.80;78.40;;;;;;5019523;28;20450;-71
2023/01/29 13:13:54;;;;;;;24.27;18.77;;;13.00;75.90;;;;;;5032208;28;20414;-69
2023/01/29 13:16:24;;;;;;;27.10;20.17;;;13.00;72.90;;;;;;5042288;28;20489;-68
2023/01/29 13:18:55;;;;;;;27.50;20.67;;;13.20;71.70;;;;;;5031661;28;20820;-70
2023/01/29 13:21:29;;;;;;;25.50;19.20;;;13.30;71.10;;;;;;5051369;28;20396;-68
2023/01/29 13:24:01;;;;;;;26.67;19.30;;;13.40;70.70;;;;;;5037048;28;20551;-68
2023/01/29 13:26:27;;;;;;;23.20;18.30;;;13.50;69.90;;;;;;5040762;28;20448;-68
2023/01/29 13:28:54;;;;;;;24.13;18.93;;;13.50;69.50;;;;;;5044976;28;20529;-67
2023/01/29 13:31:23;;;;;;;26.00;19.27;;;13.50;66.70;;;;;;5021882;28;20436;-67
2023/01/29 13:34:11;;;;;;;23.77;19.17;;;13.10;63.10;;;;;;5017540;28;20527;-73